Marble Canyon, AZ (86036)

1:03 PM MST on July 22, 2014 (GMT -0700)
HADS USRCRN SITE AT GLEN CANYON NRA N AZ US (MPGEA3) Elev 3270 ft | 36.86 °N, 111.60 °W | Change Station

Current weather conditions updated 50 days ago

Clear
Clear
98 °F
Feels Like 98 °F
N
6
Wind Variable Wind from NNE
Gusts 10 mph

Today is forecast to be Much Warmer than yesterday.

Today
High -- | Low -- °F
--% Chance of Precip.
Yesterday
High -- | Low -- °F
Precip. -- in
5:24 AM 7:41 PM
Waning Crescent, 15% visible
Pressure 29.95 in
Visibility 10.0 miles
Clouds Clear
Dew Point 29 °F
Humidity 8%
Rainfall -999.00 in
Snow Depth Not available.
UV 13 out of 12
Pollen 4.80 out of 12
Air Quality Not available.
Flu Activity Local Activity
METAR KPGA 221953Z AUTO 06003KT 10SM CLR 37/M03 A3018 RMK AO2 SLP141 T03721028

More Conditions Fewer Conditions

Pressure 29.95 in
Visibility 10.0 miles
Clouds Clear
Dew Point 29 °F
Humidity 8%
Rainfall -999.00 in
Snow Depth Not available.
UV 13 out of 12
Pollen 4.80 out of 12
Air Quality Not available.
Flu Activity Local Activity
METAR KPGA 221953Z AUTO 06003KT 10SM CLR 37/M03 A3018 RMK AO2 SLP141 T03721028

More Conditions Fewer Conditions

10-Day Weather Forecast

Almanac

Astronomy

Jul. 22, 2014 Rise Set
Actual Time 5:24 AM MST 7:41 PM MST
Civil Twilight 4:54 AM MST 8:10 PM MST
Nautical Twilight 4:18 AM MST 8:46 PM MST
Astronomical Twilight 3:39 AM MST 9:25 PM MST
Moon 1:59 AM MST 4:22 PM MST
Length of Visible Light 15h 15m
Length of Day
14h 16m
Tomorrow will be 1m 28s shorter.
Waning Crescent, 15% of the Moon is Illuminated
Today
Waning Crescent
Jul 26
New
Aug 3
First Quarter
Aug 10
Full
Aug 17
Last Quarter

Today's Extremes

State Highs State Lows

Community

WunderPhotos

Upload Photos

1,736,345 photos uploaded!

Nearby

Snow Depth

Station Depth Elevation
Snowslide Canyon 0 in 9730 ft
Workman Creek 0 in 6900 ft

Earthquake Activity

City Distance Mag. Time & Date
No recent earthquake activity has been reported nearby.
Minimum magnitude displayed is 2.5.

Coastal Water Temperatures

Place Temperature
No Stations Reporting

Nearby Weather Stations

Station Location Temp. Heat Index Dew Point Humidity Wind Precip. Elev Updated Type
Page Arizona, Page, AZ 100.1 °F 95 °F 28 °F 8% NNW  at  9.0 mph 0.00 in / hr 4172 ft 1:03 PM MST Rapid Fire
RAWS PARIA POINT AZ, Page, AZ 86 °F 83 °F 29 °F 13% SSE  at  4 mph 0.00 in / hr 7234 ft 12:00 PM MST MADIS
RAWS FOUR SPRINGS AZ, Kanab, UT 91 °F 87 °F 29 °F 11% South  at  6 mph 0.00 in / hr 6560 ft 1:19 PM MDT MADIS

Show More Stations Show Fewer Stations